Rechercher aéroport 
image banner adimage banner adimage banner ad
image banner ad

CA07 - Scheidel Ranch

Situé à Pleasant Grove, United States

ICAO - CA07, IATA -

Données fournies par Airmate  

Information générale

Coordonnées: N38°50'25" W121°33'42"
Élévation : 28 feet MSL.
Variation magnétique : 16° East
Voir autres Aéroports à California

Données opérationnelles

Special qualification required
Heure actuelle UTC:
Heure actuelle locale:
Météo à : KSMF - Sacramento Intl ( 16 km )
METAR: KSMF 251353Z 14007KT 10SM SCT150 BKN200 17/11 A2988 RMK AO2 SLP119 T01670106 $
TAF: KSMF 251120Z 2512/2612 17008KT P6SM SCT200 FM260200 18012G20KT P6SM FEW150 BKN250
Voir NOTAMs / SUP AIP / TFR affectant cet aéroport [VIEW]
Fréquences de communication: [VIEW]

Pistes:

Identifiant RWYQFULongueur (ft)Largeur (ft)SurfaceLDA (ft)
14210035OTHER
32210035OTHER

Coordonnées de l'aéroport

Adresse: Pleasant Grove United States

Vue satellite de CA07